createdAt,value
2022-11-22T00:01:58.463Z,5.80
2022-11-22T00:06:02.661Z,5.80
2022-11-22T00:10:05.993Z,5.70
2022-11-22T00:14:08.729Z,5.60
2022-11-22T00:18:11.735Z,5.80
2022-11-22T00:22:15.747Z,5.80
2022-11-22T00:26:18.440Z,5.70
2022-11-22T00:30:21.359Z,5.90
2022-11-22T00:34:24.115Z,5.80
2022-11-22T00:38:28.237Z,5.80
2022-11-22T00:42:30.949Z,5.90
2022-11-22T00:46:33.662Z,5.90
2022-11-22T00:50:36.769Z,6.00
2022-11-22T00:54:40.805Z,6.10
2022-11-22T00:58:43.517Z,6.10
2022-11-22T01:02:46.341Z,6.10
2022-11-22T01:06:49.101Z,6.30
2022-11-22T01:10:58.273Z,6.40
2022-11-22T01:15:00.984Z,6.40
2022-11-22T01:19:03.994Z,6.60
2022-11-22T01:23:06.749Z,6.60
2022-11-22T01:27:10.797Z,6.60
2022-11-22T01:31:13.504Z,6.50
2022-11-22T01:35:16.322Z,6.60
2022-11-22T01:39:19.261Z,6.60
2022-11-22T01:43:25.039Z,6.60
2022-11-22T01:47:28.428Z,6.60
2022-11-22T01:51:35.539Z,6.70
2022-11-22T01:55:38.540Z,6.70
2022-11-22T01:59:47.457Z,6.60
2022-11-22T02:03:51.625Z,6.60
2022-11-22T02:08:00.331Z,6.60
2022-11-22T02:12:05.657Z,6.50
2022-11-22T02:16:11.146Z,6.60
2022-11-22T02:20:16.932Z,6.60
2022-11-22T02:24:26.076Z,6.50
2022-11-22T02:28:33.333Z,6.70
2022-11-22T02:32:36.112Z,6.70
2022-11-22T02:36:42.349Z,6.60
2022-11-22T02:40:51.164Z,6.60
2022-11-22T02:44:55.341Z,6.60
2022-11-22T02:48:58.052Z,6.80
2022-11-22T02:53:00.796Z,6.90
2022-11-22T02:57:03.831Z,6.80
2022-11-22T03:01:07.930Z,6.70
2022-11-22T03:05:10.950Z,6.70
2022-11-22T03:09:13.645Z,6.80
2022-11-22T03:13:16.354Z,6.80
2022-11-22T03:17:20.463Z,6.80
2022-11-22T03:21:23.177Z,6.90
2022-11-22T03:25:27.584Z,7.00
2022-11-22T03:29:30.937Z,7.10
2022-11-22T03:33:35.762Z,7.00
2022-11-22T03:37:38.556Z,7.00
2022-11-22T03:41:41.319Z,7.00
2022-11-22T03:45:46.335Z,7.00
2022-11-22T03:49:50.379Z,7.10
2022-11-22T03:53:53.073Z,7.10
2022-11-22T03:57:55.782Z,7.00
2022-11-22T04:01:58.524Z,7.00
2022-11-22T04:06:02.663Z,7.00
2022-11-22T04:10:06.695Z,7.00
2022-11-22T04:14:30.131Z,7.10
2022-11-22T04:18:32.829Z,7.00
2022-11-22T04:22:36.921Z,7.00
2022-11-22T04:26:39.603Z,7.00
2022-11-22T04:31:00.046Z,7.10
2022-11-22T04:35:02.754Z,7.00
2022-11-22T04:39:06.771Z,7.00
2022-11-22T04:43:30.797Z,7.10
2022-11-22T04:47:51.127Z,7.00
2022-11-22T04:52:11.365Z,7.00
2022-11-22T04:56:15.568Z,6.90
2022-11-22T05:00:19.098Z,7.10
2022-11-22T05:04:21.797Z,7.00
2022-11-22T05:08:24.609Z,7.00
2022-11-22T05:12:28.697Z,6.90
2022-11-22T05:16:31.372Z,6.90
2022-11-22T05:20:34.088Z,7.00
2022-11-22T05:24:36.824Z,6.90
2022-11-22T05:28:40.932Z,7.00
2022-11-22T05:32:43.601Z,7.00
2022-11-22T05:36:46.351Z,7.00
2022-11-22T05:40:49.117Z,7.10
2022-11-22T05:44:53.224Z,7.10
2022-11-22T05:48:57.554Z,7.20
2022-11-22T05:53:02.777Z,7.10
2022-11-22T05:57:05.473Z,7.10
2022-11-22T06:01:11.641Z,7.10
2022-11-22T06:05:14.439Z,7.10
2022-11-22T06:09:17.334Z,7.20
2022-11-22T06:13:20.061Z,7.10
2022-11-22T06:17:24.121Z,7.10
2022-11-22T06:21:28.478Z,7.20
2022-11-22T06:25:32.298Z,7.10
2022-11-22T06:29:35.016Z,7.20
2022-11-22T06:33:40.085Z,7.10
2022-11-22T06:37:42.772Z,7.20
2022-11-22T06:41:45.562Z,7.20
2022-11-22T06:45:48.233Z,7.20
2022-11-22T06:49:52.373Z,7.20
2022-11-22T06:53:56.069Z,7.20
2022-11-22T06:57:58.741Z,7.20
2022-11-22T07:02:06.131Z,7.20
2022-11-22T07:06:12.850Z,7.20
2022-11-22T07:10:16.333Z,7.30
2022-11-22T07:14:19.105Z,7.30
2022-11-22T07:18:21.824Z,7.30
2022-11-22T07:22:25.964Z,7.20
2022-11-22T07:26:28.833Z,7.30
2022-11-22T07:30:31.572Z,7.30
2022-11-22T07:34:34.325Z,7.30
2022-11-22T07:38:38.857Z,7.30
2022-11-22T07:42:41.589Z,7.30
2022-11-22T07:46:44.482Z,7.30
2022-11-22T07:50:47.154Z,7.30
2022-11-22T07:54:51.182Z,7.30
2022-11-22T07:58:53.916Z,7.30
2022-11-22T08:02:56.842Z,7.40
2022-11-22T08:06:59.566Z,7.50
2022-11-22T08:11:04.744Z,7.50
2022-11-22T08:15:08.718Z,7.40
2022-11-22T08:19:15.877Z,7.60
2022-11-22T08:23:18.782Z,7.50
2022-11-22T08:27:22.889Z,7.50
2022-11-22T08:31:27.018Z,7.50
2022-11-22T08:35:29.732Z,7.50
2022-11-22T08:39:32.546Z,7.60
2022-11-22T08:43:36.652Z,7.60
2022-11-22T08:47:39.381Z,7.50
2022-11-22T08:51:45.038Z,7.50
2022-11-22T08:55:47.846Z,7.60
2022-11-22T08:59:51.881Z,7.60
2022-11-22T09:03:54.589Z,7.70
2022-11-22T09:12:20.166Z,7.70
2022-11-22T09:16:24.430Z,7.70
2022-11-22T09:20:27.210Z,7.70
2022-11-22T09:24:29.963Z,7.80
2022-11-22T09:28:32.940Z,7.80
2022-11-22T09:32:36.996Z,7.80
2022-11-22T09:36:39.726Z,7.70
2022-11-22T09:40:47.133Z,7.70
2022-11-22T09:45:23.968Z,7.60
2022-11-22T09:49:30.424Z,7.80
2022-11-22T09:53:38.579Z,7.80
2022-11-22T09:57:46.831Z,7.70
2022-11-22T10:01:54.342Z,7.70
2022-11-22T10:06:01.917Z,7.70
2022-11-22T10:10:08.870Z,7.70
2022-11-22T10:14:23.382Z,7.80
2022-11-22T10:18:35.296Z,7.80
2022-11-22T10:22:39.581Z,7.80
2022-11-22T10:26:42.691Z,7.90
2022-11-22T10:30:53.958Z,8.00
2022-11-22T10:35:16.805Z,7.90
2022-11-22T10:39:34.238Z,8.00
2022-11-22T10:43:42.954Z,7.90
2022-11-22T10:47:53.950Z,7.90
2022-11-22T10:52:02.850Z,8.00
2022-11-22T10:56:13.668Z,8.00
2022-11-22T11:00:20.801Z,8.00
2022-11-22T11:04:25.461Z,7.80
2022-11-22T11:09:23.365Z,7.90
2022-11-22T11:13:03.576Z,7.80
2022-11-22T11:17:06.958Z,7.70
2022-11-22T11:21:13.697Z,7.50
2022-11-22T11:25:33.515Z,7.50
2022-11-22T11:29:43.688Z,7.60
2022-11-22T11:33:47.732Z,7.70
2022-11-22T11:37:50.512Z,7.90
2022-11-22T11:41:53.230Z,7.80
2022-11-22T11:46:17.385Z,7.90
2022-11-22T11:50:24.237Z,7.80
2022-11-22T11:54:36.652Z,7.80
2022-11-22T11:58:39.467Z,7.70
2022-11-22T12:02:46.317Z,7.70
2022-11-22T12:07:03.748Z,7.60
2022-11-22T12:11:10.999Z,7.70
2022-11-22T12:15:20.417Z,7.70
2022-11-22T12:19:32.227Z,7.70
2022-11-22T12:23:40.671Z,7.70
2022-11-22T12:27:43.502Z,7.60
2022-11-22T12:31:52.964Z,7.70
2022-11-22T12:35:57.836Z,7.70
2022-11-22T12:40:13.748Z,7.70
2022-11-22T12:44:19.373Z,7.80
2022-11-22T12:48:25.561Z,7.70
2022-11-22T12:52:32.726Z,7.70
2022-11-22T12:56:45.216Z,7.70
2022-11-22T13:01:00.425Z,7.80
2022-11-22T13:05:05.733Z,7.70
2022-11-22T13:09:18.162Z,7.80
2022-11-22T13:13:25.682Z,7.90
2022-11-22T13:17:33.546Z,7.90
2022-11-22T13:21:47.959Z,8.00
2022-11-22T13:26:10.339Z,8.10
2022-11-22T13:30:20.439Z,8.00
2022-11-22T13:34:26.514Z,8.20
2022-11-22T13:38:29.775Z,8.20
2022-11-22T13:42:33.874Z,8.10
2022-11-22T13:46:57.978Z,8.10
2022-11-22T13:51:02.139Z,8.10
2022-11-22T13:55:38.782Z,8.00
2022-11-22T13:59:46.319Z,8.00
2022-11-22T14:03:49.193Z,7.90
2022-11-22T14:07:53.427Z,7.90
2022-11-22T14:12:20.901Z,7.80
2022-11-22T14:16:44.030Z,7.90
2022-11-22T14:21:00.169Z,7.90
2022-11-22T14:25:20.397Z,7.90
2022-11-22T14:30:04.220Z,7.90
2022-11-22T14:34:23.405Z,7.70
2022-11-22T14:38:32.081Z,7.60
2022-11-22T14:42:50.474Z,7.60
2022-11-22T14:46:57.524Z,7.60
2022-11-22T14:51:09.117Z,7.60
2022-11-22T14:55:17.864Z,7.60
2022-11-22T14:59:52.247Z,7.50
2022-11-22T15:09:12.941Z,7.50
2022-11-22T15:09:45.168Z,7.40
2022-11-22T15:14:24.734Z,7.40
2022-11-22T15:58:46.570Z,7.10
2022-11-22T16:02:52.399Z,7.20
2022-11-22T16:06:56.513Z,7.10
2022-11-22T16:10:59.445Z,7.00
2022-11-22T16:15:20.370Z,7.00
2022-11-22T16:19:25.361Z,7.10
2022-11-22T16:23:29.364Z,7.00
2022-11-22T16:27:32.113Z,6.90
2022-11-22T16:31:34.945Z,6.80
2022-11-22T16:35:39.187Z,6.90
2022-11-22T16:39:41.900Z,6.80
2022-11-22T16:43:45.078Z,6.80
2022-11-22T16:47:58.283Z,6.80
2022-11-22T16:52:13.135Z,6.80
2022-11-22T16:56:20.393Z,6.70
2022-11-22T17:00:23.148Z,6.70
2022-11-22T17:04:27.579Z,6.70
2022-11-22T17:08:31.725Z,6.80
2022-11-22T17:12:34.445Z,6.70
2022-11-22T17:16:37.313Z,6.70
2022-11-22T17:20:40.650Z,6.70
2022-11-22T17:24:44.785Z,6.70
2022-11-22T17:28:47.529Z,6.60
2022-11-22T17:32:50.247Z,6.60
2022-11-22T17:36:52.944Z,6.50
2022-11-22T17:41:01.308Z,6.50
2022-11-22T17:45:04.201Z,6.60
2022-11-22T17:49:11.229Z,6.60
2022-11-22T17:53:18.352Z,6.70
2022-11-22T17:57:22.454Z,6.70
2022-11-22T18:01:25.602Z,6.70
2022-11-22T18:05:28.347Z,6.90
2022-11-22T18:09:31.519Z,6.80
2022-11-22T18:13:37.374Z,6.90
2022-11-22T18:17:40.141Z,6.90
2022-11-22T18:21:43.153Z,6.90
2022-11-22T18:25:46.078Z,6.90
2022-11-22T18:29:50.167Z,7.00
2022-11-22T18:33:52.921Z,6.90
2022-11-22T18:37:55.727Z,6.90
2022-11-22T18:41:58.473Z,6.70
2022-11-22T18:46:03.040Z,6.80
2022-11-22T18:50:12.158Z,6.70
2022-11-22T18:54:15.956Z,6.70
2022-11-22T18:58:18.636Z,6.70
2022-11-22T19:02:25.708Z,6.70
2022-11-22T19:06:28.392Z,6.70
2022-11-22T19:10:31.084Z,6.70
2022-11-22T19:14:34.013Z,6.60
2022-11-22T19:18:42.689Z,6.40
2022-11-22T19:22:45.854Z,6.50
2022-11-22T19:26:48.565Z,6.50
2022-11-22T19:30:51.269Z,6.70
2022-11-22T19:34:55.309Z,6.50
2022-11-22T19:38:58.302Z,6.40
2022-11-22T19:43:01.302Z,6.50
2022-11-22T19:47:04.010Z,6.50
2022-11-22T19:51:08.789Z,6.50
2022-11-22T19:55:11.484Z,6.40
2022-11-22T19:59:15.950Z,6.40
2022-11-22T20:03:18.702Z,6.40
2022-11-22T20:07:22.858Z,6.40
2022-11-22T20:11:25.625Z,6.50
2022-11-22T20:15:28.371Z,6.40
2022-11-22T20:19:34.290Z,6.50
2022-11-22T20:23:39.185Z,6.60
2022-11-22T20:27:42.003Z,6.50
2022-11-22T20:31:44.801Z,6.50
2022-11-22T20:35:47.508Z,6.60
2022-11-22T20:39:51.582Z,6.50
2022-11-22T20:43:54.466Z,6.50
2022-11-22T20:47:57.176Z,6.40
2022-11-22T20:51:59.877Z,6.50
2022-11-22T20:56:04.682Z,6.40
2022-11-22T21:00:08.632Z,6.50
2022-11-22T21:04:11.392Z,6.40
2022-11-22T21:08:14.474Z,6.50
2022-11-22T21:12:19.138Z,6.50
2022-11-22T21:16:24.658Z,6.60
2022-11-22T21:20:27.686Z,6.60
2022-11-22T21:24:30.650Z,6.80
2022-11-22T21:28:35.835Z,6.80
2022-11-22T21:32:38.750Z,6.90
2022-11-22T21:36:41.464Z,7.00
2022-11-22T21:40:51.245Z,7.10
2022-11-22T21:44:55.342Z,7.00
2022-11-22T21:48:58.059Z,7.10
2022-11-22T21:53:01.848Z,7.00
2022-11-22T21:57:04.680Z,7.10
2022-11-22T22:01:14.068Z,7.10
2022-11-22T22:05:17.628Z,7.20
2022-11-22T22:09:20.411Z,7.20
2022-11-22T22:13:23.097Z,7.20
2022-11-22T22:17:27.156Z,7.20
2022-11-22T22:21:29.969Z,7.30
2022-11-22T22:25:33.614Z,7.30
2022-11-22T22:29:36.416Z,7.30
2022-11-22T22:33:42.221Z,7.40
2022-11-22T22:37:44.914Z,7.20
2022-11-22T22:41:47.624Z,7.20
2022-11-22T22:45:50.894Z,7.40
2022-11-22T22:49:54.979Z,7.50
2022-11-22T22:53:58.348Z,7.30
2022-11-22T22:58:01.169Z,7.20
2022-11-22T23:02:04.346Z,7.30
2022-11-22T23:06:10.415Z,7.40
2022-11-22T23:10:13.153Z,7.40
2022-11-22T23:14:18.074Z,7.40
2022-11-22T23:18:20.793Z,7.40
2022-11-22T23:22:26.142Z,7.40
2022-11-22T23:26:29.249Z,7.20
2022-11-22T23:30:32.012Z,7.20
2022-11-22T23:34:35.066Z,7.30
2022-11-22T23:38:39.778Z,7.30
2022-11-22T23:42:42.529Z,7.20
2022-11-22T23:46:45.208Z,7.20
2022-11-22T23:50:47.896Z,7.20
2022-11-22T23:54:51.973Z,7.20
2022-11-22T23:58:54.980Z,7.30
